createdAt,value
2017-06-27T00:02:13.864Z,99967
2017-06-27T00:04:42.027Z,99969
2017-06-27T00:07:10.228Z,99968
2017-06-27T00:09:38.447Z,99971
2017-06-27T00:12:07.422Z,99956
2017-06-27T00:14:35.599Z,99951
2017-06-27T00:17:04.560Z,99949
2017-06-27T00:19:32.821Z,99950
2017-06-27T00:22:00.995Z,99960
2017-06-27T00:24:29.170Z,99965
2017-06-27T00:26:57.354Z,99968
2017-06-27T00:29:25.528Z,99966
2017-06-27T00:31:53.731Z,99962
2017-06-27T00:34:22.686Z,99962
2017-06-27T00:36:50.853Z,99962
2017-06-27T00:39:19.064Z,99960
2017-06-27T00:41:47.246Z,99953
2017-06-27T00:44:16.198Z,99955
2017-06-27T00:46:44.433Z,99951
2017-06-27T00:49:12.624Z,99960
2017-06-27T00:51:40.787Z,99961
2017-06-27T00:54:08.996Z,99954
2017-06-27T00:56:37.179Z,99953
2017-06-27T00:59:05.421Z,99945
2017-06-27T01:01:33.623Z,99951
2017-06-27T01:04:01.807Z,99956
2017-06-27T01:06:29.996Z,99958
2017-06-27T01:08:58.963Z,99950
2017-06-27T01:11:27.143Z,99957
2017-06-27T01:13:55.384Z,99962
2017-06-27T01:16:23.559Z,99958
2017-06-27T01:18:51.775Z,99955
2017-06-27T01:21:20.070Z,99944
2017-06-27T01:23:49.026Z,99947
2017-06-27T01:26:17.242Z,99938
2017-06-27T01:28:46.171Z,99936
2017-06-27T01:31:14.336Z,99934
2017-06-27T01:33:42.565Z,99950
2017-06-27T01:36:11.583Z,99954
2017-06-27T01:38:39.761Z,99946
2017-06-27T01:41:08.025Z,99947
2017-06-27T01:43:36.206Z,99948
2017-06-27T01:46:04.391Z,99954
2017-06-27T01:48:32.575Z,99936
2017-06-27T01:51:00.730Z,99949
2017-06-27T01:53:28.925Z,99961
2017-06-27T01:55:57.094Z,99946
2017-06-27T01:58:25.292Z,99961
2017-06-27T02:00:53.534Z,99951
2017-06-27T02:03:21.715Z,99955
2017-06-27T02:05:49.894Z,99948
2017-06-27T02:08:18.126Z,99952
2017-06-27T02:10:47.058Z,99945
2017-06-27T02:13:15.256Z,99943
2017-06-27T02:15:43.501Z,99945
2017-06-27T02:18:11.654Z,99939
2017-06-27T02:20:39.835Z,99935
2017-06-27T02:23:08.060Z,99923
2017-06-27T02:25:36.232Z,99920
2017-06-27T02:28:04.632Z,99920
2017-06-27T02:30:33.617Z,99917
2017-06-27T02:33:02.568Z,99913
2017-06-27T02:35:30.761Z,99912
2017-06-27T02:37:58.950Z,99911
2017-06-27T02:40:27.879Z,99904
2017-06-27T02:42:56.135Z,99907
2017-06-27T02:45:24.291Z,99901
2017-06-27T02:47:53.323Z,99902
2017-06-27T02:50:21.534Z,99898
2017-06-27T02:52:49.714Z,99893
2017-06-27T02:55:17.885Z,99896
2017-06-27T02:57:46.094Z,99893
2017-06-27T03:00:14.267Z,99886
2017-06-27T03:02:42.447Z,99885
2017-06-27T03:05:10.659Z,99870
2017-06-27T03:07:38.836Z,99879
2017-06-27T03:10:07.008Z,99862
2017-06-27T03:12:35.268Z,99864
2017-06-27T03:15:03.564Z,99874
2017-06-27T03:17:31.768Z,99868
2017-06-27T03:20:00.001Z,99870
2017-06-27T03:22:28.231Z,99878
2017-06-27T03:24:57.163Z,99869
2017-06-27T03:27:25.386Z,99870
2017-06-27T03:29:54.323Z,99876
2017-06-27T03:32:22.532Z,99874
2017-06-27T03:34:50.708Z,99871
2017-06-27T03:37:18.896Z,99885
2017-06-27T03:39:47.856Z,99879
2017-06-27T03:42:16.120Z,99876
2017-06-27T03:44:44.294Z,99883
2017-06-27T03:47:12.494Z,99869
2017-06-27T03:49:40.718Z,99863
2017-06-27T03:52:08.910Z,99873
2017-06-27T03:54:37.086Z,99885
2017-06-27T03:57:05.291Z,99886
2017-06-27T03:59:34.232Z,99878
2017-06-27T04:02:02.635Z,99876
2017-06-27T04:04:30.822Z,99886
2017-06-27T04:06:59.006Z,99885
2017-06-27T04:09:28.350Z,99887
2017-06-27T04:11:57.066Z,99883
2017-06-27T04:14:25.546Z,99883
2017-06-27T04:16:54.517Z,99875
2017-06-27T04:19:22.727Z,99878
2017-06-27T04:21:50.938Z,99881
2017-06-27T04:24:19.152Z,99882
2017-06-27T04:26:47.320Z,99887
2017-06-27T04:29:15.517Z,99889
2017-06-27T04:31:43.726Z,99889
2017-06-27T04:34:11.979Z,99876
2017-06-27T04:36:40.139Z,99884
2017-06-27T04:39:08.356Z,99882
2017-06-27T04:41:36.656Z,99888
2017-06-27T04:44:04.859Z,99881
2017-06-27T04:46:33.127Z,99887
2017-06-27T04:49:01.454Z,99884
2017-06-27T04:51:29.638Z,99879
2017-06-27T04:53:57.865Z,99873
2017-06-27T04:56:26.175Z,99870
2017-06-27T04:58:54.355Z,99863
2017-06-27T05:01:22.611Z,99866
2017-06-27T05:03:51.576Z,99871
2017-06-27T05:06:19.922Z,99866
2017-06-27T05:08:48.150Z,99869
2017-06-27T05:11:17.102Z,99866
2017-06-27T05:13:45.336Z,99862
2017-06-27T05:16:14.291Z,99868
2017-06-27T05:18:42.477Z,99870
2017-06-27T05:21:11.436Z,99872
2017-06-27T05:23:39.655Z,99868
2017-06-27T05:26:08.595Z,99870
2017-06-27T05:28:36.798Z,99877
2017-06-27T05:31:05.757Z,99882
2017-06-27T05:33:34.022Z,99877
2017-06-27T05:36:02.239Z,99875
2017-06-27T05:38:30.437Z,99873
2017-06-27T05:40:58.831Z,99868
2017-06-27T05:43:27.026Z,99868
2017-06-27T05:45:55.205Z,99868
2017-06-27T05:48:23.440Z,99868
2017-06-27T05:50:51.622Z,99858
2017-06-27T05:53:19.815Z,99864
2017-06-27T05:55:48.019Z,99859
2017-06-27T05:58:16.202Z,99859
2017-06-27T06:00:45.158Z,99855
2017-06-27T06:03:13.337Z,99848
2017-06-27T06:05:41.516Z,99855
2017-06-27T06:08:09.764Z,99855
2017-06-27T06:10:37.935Z,99856
2017-06-27T06:13:06.134Z,99869
2017-06-27T06:15:35.503Z,99862
2017-06-27T06:18:03.696Z,99859
2017-06-27T06:20:31.882Z,99859
2017-06-27T06:23:00.078Z,99850
2017-06-27T06:25:28.254Z,99848
2017-06-27T06:27:56.456Z,99839
2017-06-27T06:30:24.644Z,99842
2017-06-27T06:32:52.827Z,99834
2017-06-27T06:35:21.043Z,99829
2017-06-27T06:37:49.306Z,99831
2017-06-27T06:40:17.463Z,99830
2017-06-27T06:42:45.652Z,99844
2017-06-27T06:45:13.856Z,99843
2017-06-27T06:47:42.814Z,99838
2017-06-27T06:50:10.988Z,99833
2017-06-27T06:52:39.199Z,99831
2017-06-27T06:55:07.506Z,99833
2017-06-27T06:57:35.650Z,99830
2017-06-27T07:00:03.865Z,99833
2017-06-27T07:02:32.087Z,99835
2017-06-27T07:05:01.054Z,99833
2017-06-27T07:07:29.274Z,99839
2017-06-27T07:09:57.456Z,99831
2017-06-27T07:12:25.667Z,99830
2017-06-27T07:14:53.843Z,99833
2017-06-27T07:17:22.098Z,99834
2017-06-27T07:19:50.324Z,99831
2017-06-27T07:22:19.273Z,99830
2017-06-27T07:24:47.488Z,99836
2017-06-27T07:27:16.443Z,99833
2017-06-27T07:29:44.613Z,99832
2017-06-27T07:32:12.829Z,99826
2017-06-27T07:34:41.764Z,99832
2017-06-27T07:37:09.972Z,99834
2017-06-27T07:39:38.167Z,99835
2017-06-27T07:42:06.370Z,99836
2017-06-27T07:44:34.542Z,99829
2017-06-27T07:47:02.808Z,99840
2017-06-27T07:49:30.995Z,99837
2017-06-27T07:51:59.163Z,99838
2017-06-27T07:54:27.387Z,99834
2017-06-27T07:56:55.579Z,99840
2017-06-27T07:59:24.519Z,99826
2017-06-27T08:01:52.747Z,99827
2017-06-27T08:04:21.717Z,99834
2017-06-27T08:06:49.920Z,99825
2017-06-27T08:09:18.091Z,99826
2017-06-27T08:11:46.289Z,99810
2017-06-27T08:14:14.499Z,99804
2017-06-27T08:16:42.672Z,99802
2017-06-27T08:19:10.843Z,99805
2017-06-27T08:21:39.073Z,99809
2017-06-27T08:24:07.253Z,99819
2017-06-27T08:26:35.459Z,99811
2017-06-27T08:29:03.636Z,99811
2017-06-27T08:31:31.848Z,99803
2017-06-27T08:34:00.810Z,99805
2017-06-27T08:36:29.007Z,99796
2017-06-27T08:38:58.042Z,99791
2017-06-27T08:41:27.129Z,99797
2017-06-27T08:43:55.330Z,99797
2017-06-27T08:46:23.511Z,99817
2017-06-27T08:48:51.727Z,99797
2017-06-27T08:51:19.950Z,99800
2017-06-27T08:53:48.135Z,99794
2017-06-27T08:56:16.322Z,99798
2017-06-27T08:58:45.321Z,99800
2017-06-27T09:01:14.260Z,99804
2017-06-27T09:03:42.441Z,99805
2017-06-27T09:06:10.660Z,99800
2017-06-27T09:08:39.619Z,99792
2017-06-27T09:11:07.825Z,99792
2017-06-27T09:13:36.804Z,99788
2017-06-27T09:16:05.752Z,99788
2017-06-27T09:18:33.940Z,99776
2017-06-27T09:21:02.117Z,99783
2017-06-27T09:23:30.457Z,99772
2017-06-27T09:25:58.679Z,99779
2017-06-27T09:28:26.864Z,99777
2017-06-27T09:30:55.189Z,99778
2017-06-27T09:33:23.334Z,99784
2017-06-27T09:35:51.651Z,99780
2017-06-27T09:38:19.876Z,99778
2017-06-27T09:40:48.835Z,99779
2017-06-27T09:43:17.009Z,99774
2017-06-27T09:45:45.232Z,99780
2017-06-27T09:48:13.440Z,99768
2017-06-27T09:50:41.612Z,99773
2017-06-27T09:53:10.156Z,99770
2017-06-27T09:55:38.344Z,99764
2017-06-27T09:58:07.435Z,99770
2017-06-27T10:00:35.655Z,99771
2017-06-27T10:03:03.814Z,99778
2017-06-27T10:05:32.032Z,99764
2017-06-27T10:08:00.258Z,99760
2017-06-27T10:10:28.458Z,99765
2017-06-27T10:12:56.635Z,99770
2017-06-27T10:15:25.617Z,99767
2017-06-27T10:17:53.795Z,99773
2017-06-27T10:20:22.740Z,99774
2017-06-27T10:22:50.951Z,99757
2017-06-27T10:25:19.128Z,99759
2017-06-27T10:27:47.299Z,99759
2017-06-27T10:30:15.691Z,99758
2017-06-27T10:32:43.861Z,99754
2017-06-27T10:35:12.883Z,99749
2017-06-27T10:37:41.072Z,99750
2017-06-27T10:40:09.243Z,99746
2017-06-27T10:42:37.464Z,99752
2017-06-27T10:45:05.643Z,99747
2017-06-27T10:47:34.684Z,99751
2017-06-27T10:50:03.100Z,99744
2017-06-27T10:52:31.283Z,99752
2017-06-27T10:54:59.471Z,99751
2017-06-27T10:57:28.471Z,99748
2017-06-27T10:59:57.459Z,99753
2017-06-27T11:02:26.475Z,99742
2017-06-27T11:04:54.659Z,99746
2017-06-27T11:07:22.834Z,99744
2017-06-27T11:09:51.047Z,99745
2017-06-27T11:12:19.217Z,99731
2017-06-27T11:14:47.406Z,99730
2017-06-27T11:17:16.381Z,99733
2017-06-27T11:19:44.585Z,99727
2017-06-27T11:22:13.573Z,99717
2017-06-27T11:24:42.569Z,99715
2017-06-27T11:27:11.508Z,99712
2017-06-27T11:29:39.681Z,99710
2017-06-27T11:32:07.909Z,99711
2017-06-27T11:34:36.879Z,99698
2017-06-27T11:37:05.070Z,99705
2017-06-27T11:39:34.068Z,99703
2017-06-27T11:42:02.307Z,99698
2017-06-27T11:44:30.473Z,99693
2017-06-27T11:46:58.641Z,99692
2017-06-27T11:49:26.826Z,99687
2017-06-27T11:51:55.010Z,99677
2017-06-27T11:54:23.235Z,99676
2017-06-27T11:56:51.453Z,99675
2017-06-27T11:59:19.624Z,99675
2017-06-27T12:02:05.741Z,99664
2017-06-27T12:04:34.789Z,99665
2017-06-27T12:07:19.985Z,99659
2017-06-27T12:09:48.163Z,99665
2017-06-27T12:12:17.151Z,99659
2017-06-27T12:14:45.353Z,99650
2017-06-27T12:17:13.551Z,99644
2017-06-27T12:19:41.888Z,99636
2017-06-27T12:22:10.900Z,99629
2017-06-27T12:24:39.074Z,99629
2017-06-27T12:27:07.292Z,99616
2017-06-27T12:29:35.535Z,99614
2017-06-27T12:32:03.704Z,99605
2017-06-27T12:34:32.007Z,99620
2017-06-27T12:37:00.231Z,99612
2017-06-27T12:39:29.167Z,99621
2017-06-27T12:41:57.359Z,99612
2017-06-27T12:44:25.533Z,99606
2017-06-27T12:46:53.742Z,99604
2017-06-27T12:49:22.256Z,99597
2017-06-27T12:51:50.430Z,99589
2017-06-27T12:54:18.613Z,99591
2017-06-27T12:56:46.799Z,99583
2017-06-27T12:59:14.975Z,99584
2017-06-27T13:01:43.191Z,99589
2017-06-27T13:04:11.496Z,99575
2017-06-27T13:06:39.665Z,99569
2017-06-27T13:09:07.855Z,99573
2017-06-27T13:11:36.039Z,99569
2017-06-27T13:14:04.227Z,99568
2017-06-27T13:16:32.438Z,99568
2017-06-27T13:19:00.607Z,99556
2017-06-27T13:21:28.783Z,99563
2017-06-27T13:23:57.002Z,99552
2017-06-27T13:26:25.197Z,99556
2017-06-27T13:28:53.359Z,99555
2017-06-27T13:31:21.601Z,99552
2017-06-27T13:33:49.795Z,99541
2017-06-27T13:36:17.998Z,99538
2017-06-27T13:38:46.975Z,99545
2017-06-27T13:41:15.213Z,99532
2017-06-27T13:43:43.385Z,99536
2017-06-27T13:46:11.570Z,99526
2017-06-27T13:48:39.787Z,99528
2017-06-27T13:51:07.952Z,99528
2017-06-27T13:53:36.139Z,99526
2017-06-27T13:56:05.138Z,99518
2017-06-27T13:58:33.305Z,99517
2017-06-27T14:01:02.267Z,99515
2017-06-27T14:03:30.551Z,99502
2017-06-27T14:05:58.731Z,99511
2017-06-27T14:08:26.929Z,99509
2017-06-27T14:10:55.909Z,99501
2017-06-27T14:13:24.864Z,99505
2017-06-27T14:15:53.036Z,99503
2017-06-27T14:18:21.256Z,99496
2017-06-27T14:20:50.207Z,99492
2017-06-27T14:23:18.413Z,99495
2017-06-27T14:25:47.392Z,99488
2017-06-27T14:28:16.332Z,99486
2017-06-27T14:30:44.532Z,99482
2017-06-27T14:33:12.802Z,99484
2017-06-27T14:35:40.979Z,99485
2017-06-27T14:38:09.155Z,99489
2017-06-27T14:40:37.385Z,99485
2017-06-27T14:43:05.567Z,99483
2017-06-27T14:45:33.757Z,99479
2017-06-27T14:48:01.980Z,99477
2017-06-27T14:50:30.928Z,99476
2017-06-27T14:52:59.113Z,99469
2017-06-27T14:55:27.311Z,99463
2017-06-27T14:57:55.490Z,99466
2017-06-27T15:00:24.486Z,99468
2017-06-27T15:02:53.437Z,99467
2017-06-27T15:05:21.611Z,99453
2017-06-27T15:07:49.851Z,99449
2017-06-27T15:10:18.210Z,99451
2017-06-27T15:12:46.404Z,99444
2017-06-27T15:15:14.639Z,99434
2017-06-27T15:17:43.604Z,99437
2017-06-27T15:20:11.876Z,99427
2017-06-27T15:22:40.085Z,99431
2017-06-27T15:25:09.018Z,99439
2017-06-27T15:27:37.216Z,99427
2017-06-27T15:30:05.461Z,99425
2017-06-27T15:32:33.654Z,99409
2017-06-27T15:35:01.836Z,99416
2017-06-27T15:37:30.038Z,99406
2017-06-27T15:39:58.993Z,99413
2017-06-27T15:42:27.242Z,99406
2017-06-27T15:44:55.439Z,99399
2017-06-27T15:47:23.615Z,99394
2017-06-27T15:49:52.780Z,99393
2017-06-27T15:52:20.980Z,99395
2017-06-27T15:54:49.168Z,99394
2017-06-27T15:57:17.332Z,99399
2017-06-27T15:59:45.551Z,99395
2017-06-27T16:02:13.828Z,99389
2017-06-27T16:04:42.046Z,99387
2017-06-27T16:07:10.225Z,99379
2017-06-27T16:09:38.448Z,99380
2017-06-27T16:12:06.595Z,99377
2017-06-27T16:14:35.538Z,99379
2017-06-27T16:17:03.738Z,99392
2017-06-27T16:22:07.220Z,99374
2017-06-27T16:24:35.489Z,99370
2017-06-27T16:27:03.651Z,99370
2017-06-27T16:29:31.848Z,99367
2017-06-27T16:32:00.054Z,99372
2017-06-27T16:34:28.292Z,99365
2017-06-27T16:36:56.469Z,99372
2017-06-27T16:39:24.689Z,99362
2017-06-27T16:41:52.879Z,99359
2017-06-27T16:44:21.150Z,99357
2017-06-27T16:46:50.141Z,99350
2017-06-27T16:49:19.100Z,99345
2017-06-27T16:51:47.318Z,99345
2017-06-27T16:54:15.478Z,99339
2017-06-27T16:56:44.429Z,99336
2017-06-27T16:59:12.733Z,99340
2017-06-27T17:01:41.703Z,99328
2017-06-27T17:04:09.880Z,99327
2017-06-27T17:06:38.103Z,99326
2017-06-27T17:09:06.314Z,99327
2017-06-27T17:11:34.515Z,99329
2017-06-27T17:14:03.639Z,99318
2017-06-27T17:16:31.858Z,99320
2017-06-27T17:19:00.047Z,99316
2017-06-27T17:21:29.096Z,99307
2017-06-27T17:23:57.295Z,99310
2017-06-27T17:26:25.487Z,99310
2017-06-27T17:28:53.693Z,99308
2017-06-27T17:31:21.885Z,99300
2017-06-27T17:33:50.141Z,99306
2017-06-27T17:36:18.519Z,99292
2017-06-27T17:38:46.703Z,99290
2017-06-27T17:41:15.118Z,99290
2017-06-27T17:43:43.311Z,99299
2017-06-27T17:46:11.547Z,99281
2017-06-27T17:48:39.834Z,99292
2017-06-27T17:51:08.039Z,99280
2017-06-27T17:53:36.264Z,99279
2017-06-27T17:56:04.485Z,99277
2017-06-27T17:58:32.779Z,99271
2017-06-27T18:01:01.742Z,99276
2017-06-27T18:03:29.952Z,99265
2017-06-27T18:05:58.196Z,99273
2017-06-27T18:08:26.378Z,99274
2017-06-27T18:10:55.365Z,99268
2017-06-27T18:13:23.596Z,99266
2017-06-27T18:15:51.830Z,99261
2017-06-27T18:18:20.841Z,99251
2017-06-27T18:20:49.052Z,99255
2017-06-27T18:23:17.260Z,99249
2017-06-27T18:25:46.243Z,99247
2017-06-27T18:28:14.451Z,99255
2017-06-27T18:30:42.690Z,99257
2017-06-27T18:33:11.604Z,99249
2017-06-27T18:35:40.610Z,99247
2017-06-27T18:41:08.626Z,99250
2017-06-27T18:43:36.833Z,99244
2017-06-27T18:46:05.013Z,99246
2017-06-27T18:48:33.193Z,99247
2017-06-27T18:51:02.134Z,99243
2017-06-27T18:53:30.306Z,99246
2017-06-27T18:55:58.476Z,99244
2017-06-27T18:58:26.678Z,99245
2017-06-27T19:00:54.862Z,99251
2017-06-27T19:03:23.110Z,99237
2017-06-27T19:05:51.295Z,99241
2017-06-27T19:08:19.486Z,99223
2017-06-27T19:10:47.625Z,99222
2017-06-27T19:13:15.846Z,99224
2017-06-27T19:15:45.142Z,99217
2017-06-27T19:18:14.086Z,99215
2017-06-27T19:20:42.229Z,99215
2017-06-27T19:23:10.414Z,99212
2017-06-27T19:25:38.607Z,99212
2017-06-27T19:28:06.785Z,99212
2017-06-27T19:30:34.972Z,99209
2017-06-27T19:33:03.141Z,99209
2017-06-27T19:35:31.341Z,99219
2017-06-27T19:37:59.526Z,99217
2017-06-27T19:40:28.477Z,99221
2017-06-27T19:42:56.734Z,99218
2017-06-27T19:45:24.905Z,99213
2017-06-27T19:47:53.129Z,99213
2017-06-27T19:50:22.078Z,99218
2017-06-27T19:52:50.252Z,99217
2017-06-27T19:55:18.410Z,99220
2017-06-27T19:57:46.617Z,99211
2017-06-27T20:00:14.845Z,99198
2017-06-27T20:02:43.828Z,99201
2017-06-27T20:05:12.781Z,99217
2017-06-27T20:07:40.972Z,99214
2017-06-27T20:10:09.127Z,99204
2017-06-27T20:12:37.315Z,99210
2017-06-27T20:15:05.495Z,99213
2017-06-27T20:17:33.832Z,99215
2017-06-27T20:20:02.030Z,99208
2017-06-27T20:22:30.215Z,99208
2017-06-27T20:24:58.441Z,99204
2017-06-27T20:27:26.617Z,99209
2017-06-27T20:29:54.798Z,99200
2017-06-27T20:32:23.021Z,99205
2017-06-27T20:34:51.981Z,99198
2017-06-27T20:37:20.199Z,99189
2017-06-27T20:39:49.130Z,99193
2017-06-27T20:42:17.324Z,99188
2017-06-27T20:44:45.481Z,99180
2017-06-27T20:47:13.684Z,99180
2017-06-27T20:49:42.487Z,99183
2017-06-27T20:52:11.437Z,99177
2017-06-27T20:54:39.657Z,99178
2017-06-27T20:57:08.586Z,99173
2017-06-27T20:59:36.754Z,99159
2017-06-27T21:02:04.927Z,99170
2017-06-27T21:04:33.078Z,99171
2017-06-27T21:07:01.289Z,99175
2017-06-27T21:09:29.470Z,99178
2017-06-27T21:11:57.709Z,99187
2017-06-27T21:14:25.866Z,99183
2017-06-27T21:16:54.045Z,99181
2017-06-27T21:19:22.226Z,99189
2017-06-27T21:21:50.388Z,99189
2017-06-27T21:24:18.565Z,99188
2017-06-27T21:26:46.773Z,99188
2017-06-27T21:29:15.039Z,99177
2017-06-27T21:31:43.191Z,99185
2017-06-27T21:34:11.376Z,99183
2017-06-27T21:36:39.557Z,99185
2017-06-27T21:39:07.748Z,99180
2017-06-27T21:41:35.920Z,99184
2017-06-27T21:44:04.129Z,99173
2017-06-27T21:46:32.410Z,99171
2017-06-27T21:49:01.358Z,99166
2017-06-27T21:51:29.526Z,99166
2017-06-27T21:53:57.706Z,99169
2017-06-27T21:56:25.883Z,99160
2017-06-27T21:58:54.050Z,99158
2017-06-27T22:01:22.226Z,99159
2017-06-27T22:03:50.421Z,99157
2017-06-27T22:06:18.586Z,99152
2017-06-27T22:08:46.778Z,99159
2017-06-27T22:11:15.795Z,99149
2017-06-27T22:13:44.762Z,99154
2017-06-27T22:16:12.953Z,99148
2017-06-27T22:18:41.868Z,99147
2017-06-27T22:21:10.066Z,99137
2017-06-27T22:23:38.323Z,99135
2017-06-27T22:26:06.466Z,99131
2017-06-27T22:28:35.398Z,99135
2017-06-27T22:31:03.587Z,99135
2017-06-27T22:33:31.834Z,99128
2017-06-27T22:36:00.015Z,99129
2017-06-27T22:38:28.198Z,99120
2017-06-27T22:40:56.374Z,99117
2017-06-27T22:43:24.614Z,99120
2017-06-27T22:45:52.791Z,99116
2017-06-27T22:48:21.012Z,99121
2017-06-27T22:50:49.186Z,99119
2017-06-27T22:53:17.377Z,99121
2017-06-27T22:55:46.298Z,99111
2017-06-27T22:58:14.470Z,99110
2017-06-27T23:00:42.621Z,99094
2017-06-27T23:03:11.530Z,99091
2017-06-27T23:05:39.723Z,99088
2017-06-27T23:08:07.877Z,99076
2017-06-27T23:10:36.062Z,99067
2017-06-27T23:13:04.289Z,99063
2017-06-27T23:15:32.465Z,99057
2017-06-27T23:18:00.618Z,99059
2017-06-27T23:20:28.804Z,99062
2017-06-27T23:22:56.973Z,99061
2017-06-27T23:25:25.162Z,99055
2017-06-27T23:27:53.312Z,99056
2017-06-27T23:30:21.462Z,99060
2017-06-27T23:32:49.649Z,99062
2017-06-27T23:35:17.798Z,99065
2017-06-27T23:37:45.986Z,99065
2017-06-27T23:40:14.148Z,99047
2017-06-27T23:42:42.293Z,99037
2017-06-27T23:45:10.478Z,99032
2017-06-27T23:47:38.659Z,99033
2017-06-27T23:50:06.849Z,99020
2017-06-27T23:52:35.050Z,99016
2017-06-27T23:55:03.209Z,99005
2017-06-27T23:57:31.375Z,99008
2017-06-27T23:59:59.529Z,99015
